Weather at Ben Gurion International Airport

Public forecast

Using degrees Celsius for public forecast. Weather courtesy of forecast.io.

Current aviation weather report (METAR) for Ben Gurion International Airport

Retrieved 2021/03/06 16:20 UTC (9 minutes ago):

LLBG 061620Z 34005KT CAVOK 17/12 Q1020 NOSIG

Aviation forecast (TAF) for Ben Gurion International Airport

Retrieved 2021/03/06 12:18 UTC (4 hours ago):

TAF TAF LLBG 061115Z 0612/0712 35008KT CAVOK BECMG 0616/0618 VRB03KT BECMG 0622/0624 9999 FEW015 PROB30 TEMPO 0702/0706 12005KT 6000 BKN015 BECMG 0707/0709 31010KT SCT025 TX22/0612Z TN08/0704Z